Time;durP1;ratioP1;P1;durP2;ratioP2;P2;SDS_P1;SDS_P2;PMS_P1;PMS_P2;Temp;Humidity;BMP_temperature;BMP_pressure;BME280_temperature;BME280_humidity;BME280_pressure;Samples;Min_cycle;Max_cycle;Signal;HPM_P1;HPM_P2
2022/12/07 00:04:27;;;;;;;14.97;11.30;;;;;;;4.29;56.81;100048.94;10553052;28;20234;-69
2022/12/07 00:09:29;;;;;;;15.57;12.30;;;;;;;5.31;55.13;100075.06;10544113;28;20240;-67
2022/12/07 00:14:30;;;;;;;13.67;11.03;;;;;;;5.36;55.00;100067.50;10569839;27;20707;-66
2022/12/07 00:19:32;;;;;;;16.40;10.93;;;;;;;4.93;55.49;100052.94;10559601;28;20278;-65
2022/12/07 00:24:34;;;;;;;13.53;11.07;;;;;;;5.06;54.84;100060.56;10563043;28;20245;-66
2022/12/07 00:29:36;;;;;;;15.53;10.47;;;;;;;5.14;55.34;100080.09;10559429;28;20286;-65
2022/12/07 00:34:38;;;;;;;14.07;10.33;;;;;;;5.36;54.70;100090.56;10562878;28;20237;-65
2022/12/07 00:39:40;;;;;;;14.10;11.10;;;;;;;4.81;55.85;100070.78;10560947;28;20234;-66
2022/12/07 00:44:41;;;;;;;15.60;11.40;;;;;;;4.17;57.14;100064.97;10539252;28;20284;-66
2022/12/07 00:49:43;;;;;;;16.83;12.50;;;;;;;4.28;56.41;100063.16;10557280;28;20286;-66
2022/12/07 00:54:44;;;;;;;14.90;12.27;;;;;;;4.29;56.99;100067.47;10562136;28;20241;-65
2022/12/07 00:59:46;;;;;;;14.33;11.20;;;;;;;5.35;55.02;100087.03;10557777;28;20230;-65
2022/12/07 01:04:48;;;;;;;14.53;11.50;;;;;;;4.42;57.15;100065.44;10560471;28;20240;-67
2022/12/07 01:09:49;;;;;;;16.67;11.27;;;;;;;4.43;57.26;100056.53;10560171;28;20230;-66
2022/12/07 01:14:51;;;;;;;14.67;11.13;;;;;;;2.74;60.73;100045.38;10560204;28;20233;-67
2022/12/07 01:19:53;;;;;;;15.27;12.03;;;;;;;2.97;61.80;100092.88;10564764;28;20225;-66
2022/12/07 01:24:54;;;;;;;14.77;11.27;;;;;;;4.69;57.07;100038.25;10566579;28;20725;-66
2022/12/07 01:29:56;;;;;;;15.73;12.07;;;;;;;3.44;59.29;100080.09;10559183;28;20644;-66
2022/12/07 01:34:58;;;;;;;15.90;11.73;;;;;;;3.99;58.46;100064.75;10549882;28;20230;-66
2022/12/07 01:40:00;;;;;;;17.60;11.70;;;;;;;4.32;57.50;100046.03;10557154;28;20283;-66
2022/12/07 01:45:23;;;;;;;13.77;10.37;;;;;;;5.26;55.46;100064.88;10559199;28;20262;-66
2022/12/07 01:50:27;;;;;;;15.87;11.57;;;;;;;5.21;54.89;100072.41;10554604;28;20227;-66
2022/12/07 01:55:30;;;;;;;16.67;11.57;;;;;;;4.52;56.50;100079.53;10558665;28;20237;-66
2022/12/07 02:00:31;;;;;;;14.33;11.10;;;;;;;3.91;57.44;100091.06;10542883;28;20245;-66
2022/12/07 02:05:35;;;;;;;13.50;9.70;;;;;;;4.15;56.88;100090.75;10555189;28;20294;-66
2022/12/07 02:10:37;;;;;;;12.17;10.53;;;;;;;3.84;57.56;100076.69;10540905;28;20241;-66
2022/12/07 02:15:44;;;;;;;12.80;10.37;;;;;;;3.86;58.07;100103.03;10554727;28;20226;-66
2022/12/07 02:21:09;;;;;;;15.60;9.57;;;;;;;3.38;58.64;100091.19;10552283;28;20717;-66
2022/12/07 02:26:17;;;;;;;12.27;9.57;;;;;;;3.14;60.03;100091.47;10518760;28;20287;-66
2022/12/07 02:31:23;;;;;;;13.37;10.00;;;;;;;3.49;58.04;100051.44;10559389;28;20230;-66
2022/12/07 02:36:38;;;;;;;11.57;9.60;;;;;;;4.45;56.11;100040.50;10556267;28;20234;-66
2022/12/07 02:41:47;;;;;;;14.77;9.90;;;;;;;3.78;57.39;100048.09;10555084;28;20233;-66
2022/12/07 02:46:54;;;;;;;12.47;9.77;;;;;;;2.85;59.08;100055.06;10555936;28;20784;-66
2022/12/07 02:51:56;;;;;;;11.33;9.30;;;;;;;3.09;58.14;100057.47;10555296;28;20234;-66
2022/12/07 02:57:39;;;;;;;12.40;9.40;;;;;;;3.26;58.48;100056.91;10557517;28;20370;-64
2022/12/07 03:02:59;;;;;;;14.87;10.03;;;;;;;2.78;59.04;100045.97;10544217;28;20232;-66
2022/12/07 03:08:18;;;;;;;10.87;9.30;;;;;;;4.27;56.89;100032.34;10554979;28;20229;-65
2022/12/07 03:13:41;;;;;;;13.47;9.83;;;;;;;3.47;58.38;100040.16;10564965;28;20274;-68
2022/12/07 03:18:51;;;;;;;10.83;9.07;;;;;;;3.84;58.16;100042.28;10555702;28;20244;-65
2022/12/07 03:24:00;;;;;;;13.03;10.07;;;;;;;3.51;58.55;100025.69;10554403;28;20321;-65
2022/12/07 03:29:09;;;;;;;11.73;9.30;;;;;;;4.02;57.33;100021.28;10555728;28;20616;-65
2022/12/07 03:34:34;;;;;;;13.07;9.97;;;;;;;3.85;56.89;99996.31;10508411;28;20229;-66
2022/12/07 03:40:03;;;;;;;14.30;10.50;;;;;;;3.22;58.33;100015.81;10502470;28;20241;-66
2022/12/07 03:45:06;;;;;;;12.90;9.50;;;;;;;3.28;58.85;100047.03;10505235;28;20677;-66
2022/12/07 03:50:36;;;;;;;14.77;9.97;;;;;;;2.50;60.30;100045.56;10508482;28;20735;-65
2022/12/07 03:55:42;;;;;;;13.93;10.73;;;;;;;2.60;60.43;100012.13;10513181;28;20230;-65
2022/12/07 04:00:45;;;;;;;11.90;10.27;;;;;;;2.45;61.04;100050.38;10508493;28;20237;-65
2022/12/07 04:05:47;;;;;;;14.67;10.90;;;;;;;1.25;63.34;100021.06;10514874;28;20602;-65
2022/12/07 04:10:48;;;;;;;15.33;9.70;;;;;;;0.56;64.81;99982.38;10518368;28;20234;-65
2022/12/07 04:15:50;;;;;;;12.80;10.00;;;;;;;1.88;61.92;100000.38;10516485;28;20579;-66
2022/12/07 04:20:52;;;;;;;12.67;10.67;;;;;;;2.47;60.72;99978.00;10504588;28;20320;-65
2022/12/07 04:25:53;;;;;;;11.57;9.57;;;;;;;2.90;59.11;99958.53;10508953;28;20643;-65
2022/12/07 04:30:55;;;;;;;16.20;11.80;;;;;;;3.50;57.85;99947.31;10505160;28;20246;-66
2022/12/07 04:35:57;;;;;;;17.70;13.90;;;;;;;1.63;61.46;100004.13;10518268;28;20260;-66
2022/12/07 04:41:04;;;;;;;14.20;11.67;;;;;;;2.21;61.25;99997.78;10510195;28;20238;-66
2022/12/07 04:46:06;;;;;;;14.20;11.77;;;;;;;2.79;59.36;99968.31;10510986;28;20248;-66
2022/12/07 04:51:08;;;;;;;13.30;10.50;;;;;;;1.41;62.16;99986.50;10502538;28;20241;-66
2022/12/07 04:56:10;;;;;;;14.30;11.03;;;;;;;2.08;60.57;99974.16;10509169;28;20238;-65
2022/12/07 05:01:13;;;;;;;14.37;10.70;;;;;;;2.03;59.58;99979.81;10511807;28;20244;-66
2022/12/07 05:06:14;;;;;;;19.77;11.30;;;;;;;2.36;59.17;99967.47;10516633;28;20235;-67
2022/12/07 05:16:37;;;;;;;13.23;10.97;;;;;;;2.42;58.31;99982.81;10509069;28;20315;-66
2022/12/07 05:21:39;;;;;;;13.00;9.97;;;;;;;1.87;59.93;99990.75;10514312;28;20238;-67
2022/12/07 05:26:42;;;;;;;13.87;10.30;;;;;;;1.53;61.54;100008.44;10509104;28;21764;-66
2022/12/07 05:31:44;;;;;;;13.83;10.57;;;;;;;3.30;57.30;99956.13;10510974;28;20238;-66
2022/12/07 05:36:46;;;;;;;11.93;9.60;;;;;;;2.99;57.47;99956.09;10515579;28;20240;-66
2022/12/07 05:47:09;;;;;;;13.53;10.63;;;;;;;2.18;58.87;99980.41;10508834;28;20280;-67
2022/12/07 05:52:10;;;;;;;13.13;10.97;;;;;;;2.85;58.18;99971.28;10517378;28;20258;-66
2022/12/07 05:57:12;;;;;;;12.27;10.40;;;;;;;2.52;58.92;99996.94;10545939;28;20279;-66
2022/12/07 06:02:15;;;;;;;14.37;11.07;;;;;;;2.43;58.66;100008.25;10558880;28;20233;-66
2022/12/07 06:07:17;;;;;;;14.57;11.27;;;;;;;2.90;57.75;99969.09;10557647;28;20924;-66
2022/12/07 06:12:34;;;;;;;13.37;9.00;;;;;;;0.04;63.78;99984.41;10552302;28;20830;-65
2022/12/07 06:17:36;;;;;;;13.77;11.00;;;;;;;0.10;64.80;99998.88;10547784;28;20231;-65
2022/12/07 06:22:38;;;;;;;14.00;10.47;;;;;;;0.43;64.51;99998.22;10555686;28;20233;-65
2022/12/07 06:27:39;;;;;;;13.07;9.90;;;;;;;1.36;62.89;99967.56;10549060;28;20237;-64
2022/12/07 06:32:41;;;;;;;11.73;8.90;;;;;;;0.19;64.17;99985.06;10559095;28;20244;-65
2022/12/07 06:37:42;;;;;;;14.87;10.13;;;;;;;1.57;61.02;99962.38;10551517;28;20236;-65
2022/12/07 06:42:45;;;;;;;13.77;10.83;;;;;;;1.49;61.83;99957.72;10556960;28;20227;-65
2022/12/07 06:47:46;;;;;;;16.53;10.87;;;;;;;0.97;62.58;99988.94;10556904;28;20636;-65
2022/12/07 06:52:48;;;;;;;12.60;9.73;;;;;;;1.12;62.55;99981.66;10556434;28;20237;-65
2022/12/07 06:57:50;;;;;;;14.33;10.07;;;;;;;1.13;62.34;99975.41;10562157;28;20228;-64
2022/12/07 07:02:51;;;;;;;16.53;11.27;;;;;;;0.01;63.89;99991.69;10558851;28;20233;-65
2022/12/07 07:07:53;;;;;;;11.93;8.60;;;;;;;-0.03;64.56;99971.78;10558265;28;21089;-65
2022/12/07 07:13:15;;;;;;;13.40;8.93;;;;;;;0.52;62.83;99953.72;10548899;28;20778;-65
2022/12/07 07:18:16;;;;;;;13.60;11.00;;;;;;;1.42;61.36;99944.19;10558113;28;20224;-65
2022/12/07 07:23:19;;;;;;;15.40;10.33;;;;;;;0.26;64.11;99961.78;10564570;28;20238;-66
2022/12/07 07:28:21;;;;;;;13.10;9.87;;;;;;;0.90;63.38;99950.84;10562644;28;20222;-65
2022/12/07 07:33:22;;;;;;;9.23;6.87;;;;;;;-0.40;65.69;99966.50;10565961;28;20624;-65
2022/12/07 07:38:24;;;;;;;11.00;8.83;;;;;;;0.22;64.12;99971.66;10562407;28;20240;-65
2022/12/07 07:43:26;;;;;;;13.80;10.23;;;;;;;0.83;62.70;99947.84;10565195;28;20876;-65
2022/12/07 07:48:27;;;;;;;13.30;9.97;;;;;;;1.66;60.06;99919.44;10562657;28;20294;-70
2022/12/07 07:53:29;;;;;;;14.13;10.27;;;;;;;1.99;60.27;99925.59;10565535;28;20251;-65
2022/12/07 07:58:31;;;;;;;11.50;9.43;;;;;;;1.07;62.40;99957.44;10562472;28;20615;-65
2022/12/07 08:03:32;;;;;;;12.57;9.90;;;;;;;0.93;61.89;99965.56;10563329;28;21007;-65
2022/12/07 08:08:34;;;;;;;11.80;9.43;;;;;;;1.88;59.74;99944.13;10562038;28;20236;-64
2022/12/07 08:13:37;;;;;;;12.57;9.30;;;;;;;1.48;60.62;99940.22;10566510;28;20252;-65
2022/12/07 08:18:40;;;;;;;12.67;9.23;;;;;;;1.60;61.82;99943.69;10560942;28;20231;-65
2022/12/07 08:23:42;;;;;;;9.80;6.77;;;;;;;0.13;62.96;100003.94;10562735;27;20736;-65
2022/12/07 08:28:44;;;;;;;13.53;10.17;;;;;;;2.20;59.37;99944.13;10561487;28;20226;-65
2022/12/07 08:33:47;;;;;;;13.97;9.37;;;;;;;1.53;60.81;99966.22;10563820;27;20290;-65
2022/12/07 08:38:49;;;;;;;11.90;9.77;;;;;;;1.33;61.17;99995.00;10560402;28;20237;-65
2022/12/07 08:44:11;;;;;;;13.33;9.83;;;;;;;2.23;58.61;99958.88;10525641;28;20711;-65
2022/12/07 08:49:24;;;;;;;16.20;11.00;;;;;;;1.65;59.36;99985.53;10523879;28;20238;-65
2022/12/07 08:54:27;;;;;;;15.13;10.40;;;;;;;2.05;59.43;99987.63;10518740;28;20299;-63
2022/12/07 08:59:29;;;;;;;13.93;10.57;;;;;;;0.87;60.88;100040.66;10506871;28;20233;-65
2022/12/07 09:04:31;;;;;;;14.33;10.53;;;;;;;2.47;58.26;99978.00;10515219;28;20256;-65
2022/12/07 09:09:33;;;;;;;14.50;11.20;;;;;;;1.51;59.95;100032.28;10513120;28;20320;-65
2022/12/07 09:14:34;;;;;;;14.07;11.00;;;;;;;2.40;57.94;99987.41;10509706;28;20235;-65
2022/12/07 09:19:37;;;;;;;15.13;11.50;;;;;;;1.96;58.17;99999.75;10521416;28;20231;-65
2022/12/07 09:24:38;;;;;;;17.70;12.20;;;;;;;1.93;58.38;100021.13;10526536;28;21253;-65
2022/12/07 09:29:40;;;;;;;16.27;12.57;;;;;;;2.66;57.54;99990.50;10509925;28;20661;-65
2022/12/07 09:34:42;;;;;;;14.40;10.40;;;;;;;1.32;60.12;100061.03;10525903;28;20565;-65
2022/12/07 09:39:44;;;;;;;13.80;10.17;;;;;;;2.33;57.57;100010.81;10558063;28;20233;-65
2022/12/07 09:44:50;;;;;;;16.93;12.97;;;;;;;2.86;56.74;100006.50;10555125;28;20227;-65
2022/12/07 09:49:58;;;;;;;15.40;10.70;;;;;;;1.98;57.67;100011.88;10516558;28;20230;-67
2022/12/07 09:55:00;;;;;;;14.23;11.50;;;;;;;2.29;58.29;100012.03;10517344;28;20222;-65
2022/12/07 10:00:10;;;;;;;15.23;11.17;;;;;;;2.29;57.79;100011.19;10517713;28;20234;-64
2022/12/07 10:05:16;;;;;;;16.43;11.67;;;;;;;1.97;57.98;100018.09;10517861;28;20715;-65
2022/12/07 10:10:38;;;;;;;13.80;10.30;;;;;;;2.74;56.67;99995.16;10517315;28;20234;-65
2022/12/07 10:15:47;;;;;;;13.10;10.53;;;;;;;3.42;55.99;99990.28;10514413;28;20299;-65
2022/12/07 10:20:49;;;;;;;15.37;11.97;;;;;;;2.70;57.24;100007.81;10515873;28;20234;-65
2022/12/07 10:25:54;;;;;;;13.13;10.30;;;;;;;2.92;56.40;100003.38;10517718;28;20227;-65
2022/12/07 10:30:59;;;;;;;15.60;11.13;;;;;;;2.73;57.05;99998.75;10515643;28;20231;-65
2022/12/07 10:36:20;;;;;;;14.17;10.20;;;;;;;2.50;56.76;100003.31;10518564;28;20230;-65
2022/12/07 10:41:21;;;;;;;14.53;11.00;;;;;;;3.31;56.14;99990.41;10506297;28;20241;-65
2022/12/07 10:46:47;;;;;;;14.43;10.10;;;;;;;3.44;55.94;99996.28;10518359;28;20222;-65
2022/12/07 10:52:39;;;;;;;14.57;10.73;;;;;;;3.40;56.12;99997.53;10502438;28;20704;-65
2022/12/07 10:57:56;;;;;;;16.10;12.90;;;;;;;3.08;56.15;99977.31;10475655;28;20291;-65
2022/12/07 11:07:15;;;;;;;14.30;10.43;;;;;;;1.46;61.26;100001.97;10560946;27;20343;-66
2022/12/07 11:12:31;;;;;;;14.50;10.83;;;;;;;2.24;60.01;99974.59;10437790;28;20235;-64
2022/12/07 11:17:54;;;;;;;15.30;11.07;;;;;;;2.14;59.93;99950.72;10465495;28;20234;-64
2022/12/07 11:23:33;;;;;;;14.53;11.73;;;;;;;2.83;58.64;99930.94;10524314;28;20226;-65
2022/12/07 11:28:41;;;;;;;24.03;15.33;;;;;;;2.00;59.83;99943.13;10512734;28;20230;-65
2022/12/07 11:33:49;;;;;;;15.37;11.63;;;;;;;1.70;60.98;99951.69;10518803;28;20230;-65
2022/12/07 11:39:03;;;;;;;15.80;11.27;;;;;;;1.76;60.93;99940.66;10507891;28;20229;-63
2022/12/07 11:44:11;;;;;;;19.30;15.23;;;;;;;2.26;59.96;99916.38;10512836;28;20738;-63
2022/12/07 11:49:23;;;;;;;35.80;27.10;;;;;;;2.73;59.38;99909.75;10521141;28;20309;-63
2022/12/07 11:54:31;;;;;;;17.20;12.43;;;;;;;1.60;61.22;99925.22;10515603;28;20223;-63
2022/12/07 11:59:42;;;;;;;16.33;11.67;;;;;;;2.01;61.24;99920.19;10508777;28;20730;-63
2022/12/07 12:04:58;;;;;;;18.63;12.57;;;;;;;2.28;60.26;99891.53;10494919;28;20242;-65
2022/12/07 12:10:06;;;;;;;15.73;12.13;;;;;;;1.87;60.72;99898.41;10507424;28;20253;-64
2022/12/07 12:15:13;;;;;;;14.27;11.80;;;;;;;2.44;60.53;99893.72;10494885;28;20239;-64
2022/12/07 12:20:21;;;;;;;14.37;11.47;;;;;;;2.38;60.28;99894.22;10482746;28;20276;-65
2022/12/07 12:25:38;;;;;;;17.23;12.53;;;;;;;2.74;59.78;99876.25;10486201;28;20696;-65
2022/12/07 12:30:40;;;;;;;95.03;16.10;;;;;;;2.88;60.03;99859.19;10479546;28;20246;-64
2022/12/07 12:35:42;;;;;;;15.80;11.70;;;;;;;3.24;58.95;99857.84;10486486;28;20234;-64
2022/12/07 12:40:44;;;;;;;24.90;15.07;;;;;;;3.40;59.06;99865.25;10497250;28;20262;-65
2022/12/07 12:46:29;;;;;;;16.27;11.47;;;;;;;2.98;59.58;99870.69;10476747;28;20271;-65
2022/12/07 12:51:39;;;;;;;16.70;12.37;;;;;;;2.53;60.35;99870.97;10481174;28;20313;-65
2022/12/07 12:56:52;;;;;;;16.73;13.07;;;;;;;2.26;61.22;99888.16;10470436;28;20242;-65
2022/12/07 13:02:34;;;;;;;15.37;12.77;;;;;;;2.72;60.42;99859.66;10476378;28;20231;-65
2022/12/07 13:13:19;;;;;;;16.17;12.33;;;;;;;2.40;60.45;99836.84;10485572;28;20703;-67
2022/12/07 13:18:35;;;;;;;24.00;19.10;;;;;;;2.78;59.34;99826.59;10455731;28;20231;-65
2022/12/07 13:23:43;;;;;;;20.27;13.07;;;;;;;2.65;59.70;99834.72;10495592;28;20363;-65
2022/12/07 13:29:04;;;;;;;15.63;11.33;;;;;;;3.07;59.05;99822.31;10471419;28;21177;-64
2022/12/07 13:34:32;;;;;;;16.43;12.00;;;;;;;3.42;58.01;99822.78;10479953;28;20223;-72
2022/12/07 13:39:44;;;;;;;14.63;11.20;;;;;;;3.81;56.92;99852.75;10482085;28;20235;-65
2022/12/07 13:44:45;;;;;;;14.47;10.77;;;;;;;3.57;57.40;99837.28;10477165;28;20226;-64
2022/12/07 13:49:55;;;;;;;13.57;10.13;;;;;;;3.54;58.19;99848.13;10476031;28;20987;-64
2022/12/07 13:55:01;;;;;;;15.20;10.90;;;;;;;2.98;58.29;99841.59;10483632;28;20238;-64
2022/12/07 14:00:06;;;;;;;18.57;12.90;;;;;;;2.86;58.93;99829.41;10464071;28;20243;-65
2022/12/07 14:05:24;;;;;;;13.73;11.03;;;;;;;3.82;56.77;99845.69;10485148;28;20234;-67
2022/12/07 14:10:27;;;;;;;14.17;10.60;;;;;;;2.94;58.40;99849.91;10478336;28;20239;-68
2022/12/07 14:15:31;;;;;;;15.17;10.80;;;;;;;3.63;57.87;99857.06;10489613;28;20299;-70
2022/12/07 14:20:33;;;;;;;16.53;11.97;;;;;;;3.20;57.87;99845.84;10476606;28;20239;-65
2022/12/07 14:25:49;;;;;;;12.97;10.37;;;;;;;4.04;56.35;99849.84;10479401;28;20317;-67
2022/12/07 14:30:52;;;;;;;15.60;11.23;;;;;;;4.23;56.03;99872.84;10462067;28;20231;-70
2022/12/07 14:35:57;;;;;;;18.07;12.07;;;;;;;3.60;57.20;99860.00;10483038;28;20234;-69
2022/12/07 14:41:50;;;;;;;16.00;11.40;;;;;;;3.69;56.56;99847.75;10475161;28;20246;-68
2022/12/07 14:46:21;;;;;;;14.20;10.47;;;;;;;4.10;56.31;99864.34;10478794;28;20598;-69
2022/12/07 14:51:23;;;;;;;14.00;10.37;;;;;;;3.59;56.81;99859.16;10477166;28;20227;-70
2022/12/07 14:56:48;;;;;;;14.27;9.67;;;;;;;3.82;57.66;99885.38;10486457;28;20235;-67
2022/12/07 15:01:50;;;;;;;14.70;9.37;;;;;;;3.47;57.97;99866.38;10490494;28;20226;-64
2022/12/07 15:07:00;;;;;;;14.07;10.03;;;;;;;3.20;59.41;99896.09;10482877;28;20232;-65
2022/12/07 15:12:03;;;;;;;14.97;11.57;;;;;;;3.21;58.70;99868.69;10483239;28;20732;-71
2022/12/07 15:17:05;;;;;;;15.03;10.13;;;;;;;2.89;60.29;99887.31;10482696;28;21313;-68
2022/12/07 15:22:12;;;;;;;13.30;10.70;;;;;;;3.12;59.60;99882.69;10479003;28;20234;-64
2022/12/07 15:27:14;;;;;;;13.40;10.00;;;;;;;2.15;60.08;99878.50;10474709;28;20233;-70
2022/12/07 15:32:15;;;;;;;14.87;10.00;;;;;;;2.21;60.43;99882.41;10482279;28;20613;-70
2022/12/07 15:37:17;;;;;;;10.97;8.57;;;;;;;1.94;62.01;99881.09;10472730;28;20231;-69
2022/12/07 15:42:19;;;;;;;14.03;10.20;;;;;;;1.91;61.38;99864.66;10468076;28;20238;-69
2022/12/07 15:47:21;;;;;;;13.87;9.80;;;;;;;3.15;58.76;99836.66;10475998;28;20235;-67
2022/12/07 15:52:23;;;;;;;16.27;10.80;;;;;;;2.36;59.84;99840.69;10489121;28;20411;-69
2022/12/07 15:57:24;;;;;;;13.90;10.07;;;;;;;4.12;56.87;99836.75;10476908;28;20613;-67
2022/12/07 16:02:27;;;;;;;13.87;11.00;;;;;;;2.54;59.71;99857.63;10478828;28;20239;-68
2022/12/07 16:07:29;;;;;;;14.73;10.57;;;;;;;2.84;59.53;99837.47;10487758;28;20323;-65
2022/12/07 16:12:31;;;;;;;15.63;11.03;;;;;;;2.10;60.20;99845.53;10490234;28;20239;-66
2022/12/07 16:17:33;;;;;;;15.43;10.93;;;;;;;1.89;60.50;99825.22;10485558;28;20825;-67
2022/12/07 16:22:34;;;;;;;14.90;10.93;;;;;;;2.31;60.58;99840.25;10492192;28;20830;-69
2022/12/07 16:27:36;;;;;;;14.77;10.53;;;;;;;2.61;59.56;99793.69;10494031;28;20231;-67
2022/12/07 16:32:38;;;;;;;18.30;11.37;;;;;;;2.34;61.04;99843.47;10486497;28;20591;-69
2022/12/07 16:37:42;;;;;;;16.77;11.97;;;;;;;2.75;59.19;99795.97;10499948;28;20634;-71
2022/12/07 16:42:44;;;;;;;15.50;11.80;;;;;;;2.38;59.88;99793.84;10484552;28;20238;-70
2022/12/07 16:47:45;;;;;;;21.30;13.83;;;;;;;2.52;59.10;99784.78;10489202;28;20937;-66
2022/12/07 16:52:47;;;;;;;17.23;12.83;;;;;;;3.15;58.75;99786.41;10488266;28;20914;-70
2022/12/07 16:57:49;;;;;;;18.00;13.23;;;;;;;2.78;59.03;99779.84;10488231;28;20231;-69
2022/12/07 17:02:51;;;;;;;22.03;13.97;;;;;;;3.16;58.42;99780.97;10478608;28;20246;-69
2022/12/07 17:07:52;;;;;;;20.23;14.93;;;;;;;2.95;59.21;99780.22;10480180;28;20231;-70
2022/12/07 17:12:54;;;;;;;16.00;11.30;;;;;;;2.45;60.42;99795.03;10491391;28;20735;-69
2022/12/07 17:17:58;;;;;;;15.43;10.93;;;;;;;2.30;60.23;99776.03;10476041;28;20238;-70
2022/12/07 17:22:59;;;;;;;15.07;11.23;;;;;;;2.19;60.44;99784.03;10491284;28;20752;-70
2022/12/07 17:28:01;;;;;;;15.97;12.07;;;;;;;1.51;61.38;99783.53;10477537;28;20241;-67
2022/12/07 17:33:03;;;;;;;16.47;11.70;;;;;;;1.55;61.81;99777.84;10484852;28;20227;-70
2022/12/07 17:38:04;;;;;;;17.77;12.53;;;;;;;3.29;58.40;99730.44;10479883;28;20231;-68
2022/12/07 17:43:06;;;;;;;17.40;12.97;;;;;;;2.49;58.84;99733.03;10498908;22;20241;-35
2022/12/07 17:48:08;;;;;;;15.40;11.57;;;;;;;2.22;60.04;99759.19;10454068;28;20224;-35
2022/12/07 17:53:11;;;;;;;17.53;13.43;;;;;;;2.31;60.39;99750.44;10466858;28;20883;-36
2022/12/07 17:58:12;;;;;;;18.43;13.13;;;;;;;2.45;59.70;99731.63;10494067;22;20243;-34
2022/12/07 18:03:14;;;;;;;15.90;11.50;;;;;;;1.94;60.91;99754.41;10476052;28;20615;-36
2022/12/07 18:08:16;;;;;;;18.03;12.90;;;;;;;2.07;60.93;99766.59;10440382;28;20814;-37
2022/12/07 18:13:37;;;;;;;16.50;13.07;;;;;;;2.65;58.71;99732.53;10401657;28;20228;-33
2022/12/07 18:18:39;;;;;;;16.60;11.23;;;;;;;1.20;62.12;99755.19;10392974;28;20338;-36
2022/12/07 18:23:43;;;;;;;24.77;13.80;;;;;;;2.12;60.71;99745.91;10405113;28;20235;-36
2022/12/07 18:28:45;;;;;;;20.07;14.17;;;;;;;3.46;56.97;99702.47;10394404;28;20248;-37
2022/12/07 18:33:48;;;;;;;19.27;13.23;;;;;;;2.10;59.01;99718.81;10425784;28;20232;-34
2022/12/07 18:38:50;;;;;;;17.00;13.43;;;;;;;3.11;57.78;99714.44;10397943;28;20236;-35
2022/12/07 18:43:52;;;;;;;20.43;14.40;;;;;;;3.64;56.35;99718.47;10389264;28;20622;-35
2022/12/07 18:48:56;;;;;;;26.63;17.43;;;;;;;3.23;56.88;99720.44;10388745;28;20228;-35
2022/12/07 18:53:59;;;;;;;23.07;16.20;;;;;;;2.29;58.64;99740.03;10396600;28;20244;-35
2022/12/07 19:04:23;;;;;;;24.53;18.57;;;;;;;2.41;58.41;99758.44;10402929;28;20377;-35
2022/12/07 19:09:25;;;;;;;28.03;17.33;;;;;;;2.04;58.17;99740.44;10391262;28;20228;-35
2022/12/07 19:14:32;;;;;;;26.77;19.37;;;;;;;3.51;55.33;99725.88;10393717;28;20252;-35
2022/12/07 19:19:45;;;;;;;23.30;16.40;;;;;;;3.48;55.58;99737.59;10391774;28;20233;-35
2022/12/07 19:24:49;;;;;;;30.80;21.33;;;;;;;3.45;55.60;99743.16;10402733;28;20232;-35
2022/12/07 19:29:50;;;;;;;31.40;21.47;;;;;;;3.61;54.90;99746.06;10397952;28;20717;-35
2022/12/07 19:34:55;;;;;;;25.13;18.60;;;;;;;3.03;56.25;99719.59;10398842;28;20240;-35
2022/12/07 19:39:57;;;;;;;25.40;16.27;;;;;;;0.97;61.65;99796.56;10397415;28;21126;-35
2022/12/07 19:44:59;;;;;;;20.70;15.50;;;;;;;1.70;60.07;99783.69;10404209;28;20752;-35
2022/12/07 19:50:02;;;;;;;21.67;15.80;;;;;;;2.32;57.80;99733.66;10396057;28;20247;-35
2022/12/07 19:55:04;;;;;;;21.40;15.50;;;;;;;1.26;59.94;99782.84;10403304;28;20240;-35
2022/12/07 20:00:07;;;;;;;22.40;14.80;;;;;;;1.41;60.46;99773.72;10396886;28;21249;-35
2022/12/07 20:05:09;;;;;;;22.57;14.67;;;;;;;2.34;58.62;99744.91;10396395;28;20234;-35
2022/12/07 20:10:11;;;;;;;24.63;16.47;;;;;;;2.56;57.69;99711.38;10397308;28;20236;-35
2022/12/07 20:15:13;;;;;;;24.17;17.10;;;;;;;2.08;57.95;99723.38;10401672;28;20603;-35
2022/12/07 20:20:15;;;;;;;25.73;17.47;;;;;;;2.71;56.69;99708.19;10396579;28;20716;-35
2022/12/07 20:25:18;;;;;;;27.40;17.33;;;;;;;2.78;56.62;99716.44;10396606;28;20287;-34
2022/12/07 20:30:20;;;;;;;25.07;16.33;;;;;;;1.62;58.84;99738.63;10405483;28;20234;-35
2022/12/07 20:35:22;;;;;;;22.60;14.73;;;;;;;0.95;59.89;99743.16;10397891;28;20262;-34
2022/12/07 20:40:24;;;;;;;24.60;15.53;;;;;;;1.04;60.06;99750.28;10398435;28;20235;-34
2022/12/07 20:45:26;;;;;;;22.07;15.70;;;;;;;1.42;59.41;99748.19;10404569;28;20255;-34
2022/12/07 20:50:30;;;;;;;24.27;16.33;;;;;;;2.21;57.93;99715.25;10400502;28;20251;-34
2022/12/07 20:55:33;;;;;;;23.63;16.57;;;;;;;2.33;57.13;99717.69;10401019;28;20237;-35
2022/12/07 21:00:35;;;;;;;25.70;16.83;;;;;;;1.41;59.19;99728.88;10400370;28;20235;-35
2022/12/07 21:05:37;;;;;;;27.77;17.40;;;;;;;1.61;58.72;99736.97;10409506;28;20240;-35
2022/12/07 21:10:39;;;;;;;26.57;16.23;;;;;;;1.01;59.60;99724.19;10395309;28;20259;-35
2022/12/07 21:15:41;;;;;;;25.77;16.20;;;;;;;1.98;58.40;99716.25;10406947;28;20235;-35
2022/12/07 21:20:42;;;;;;;22.43;15.00;;;;;;;1.80;58.25;99715.16;10398145;28;20343;-35
2022/12/07 21:25:44;;;;;;;24.97;15.53;;;;;;;2.34;57.37;99714.06;10397816;28;20281;-34
2022/12/07 21:30:46;;;;;;;24.37;17.43;;;;;;;1.83;57.98;99714.91;10402470;28;20228;-35
2022/12/07 21:36:11;;;;;;;22.60;16.67;;;;;;;1.64;58.08;99705.06;10415800;28;20232;-35
2022/12/07 21:41:24;;;;;;;24.33;14.63;;;;;;;0.85;59.08;99724.59;10418382;28;20242;-35
2022/12/07 21:46:28;;;;;;;24.97;15.63;;;;;;;0.86;60.58;99722.78;10390192;28;20238;-34
2022/12/07 21:51:35;;;;;;;22.83;15.17;;;;;;;0.95;60.20;99734.38;10393641;28;20323;-35
2022/12/07 21:56:40;;;;;;;23.37;15.27;;;;;;;1.00;60.05;99727.81;10383434;28;20251;-34
2022/12/07 22:01:45;;;;;;;21.83;15.07;;;;;;;1.90;58.16;99707.31;10402087;28;20274;-35
2022/12/07 22:06:48;;;;;;;24.87;17.03;;;;;;;1.44;57.92;99696.16;10431825;28;20235;-35
2022/12/07 22:11:50;;;;;;;21.07;14.70;;;;;;;1.65;57.32;99690.88;10437726;28;21019;-34
2022/12/07 22:16:52;;;;;;;22.90;14.43;;;;;;;2.06;55.85;99681.25;10444998;28;20609;-35
2022/12/07 22:21:54;;;;;;;24.67;16.07;;;;;;;1.05;59.35;99712.44;10448866;28;20237;-35
2022/12/07 22:26:55;;;;;;;20.03;14.17;;;;;;;1.53;57.76;99681.38;10441863;28;20246;-35
2022/12/07 22:31:57;;;;;;;21.50;14.30;;;;;;;0.56;60.09;99708.47;10438362;28;20432;-35
2022/12/07 22:36:59;;;;;;;19.07;13.33;;;;;;;1.02;59.57;99699.53;10440233;28;20239;-35
2022/12/07 22:42:01;;;;;;;22.03;14.43;;;;;;;0.74;60.50;99703.53;10433247;28;20238;-34
2022/12/07 22:47:03;;;;;;;17.47;12.77;;;;;;;0.31;61.28;99685.88;10441599;28;20240;-34
2022/12/07 22:52:06;;;;;;;20.17;13.60;;;;;;;0.37;61.16;99676.66;10431126;28;20233;-35
2022/12/07 22:57:08;;;;;;;17.67;13.43;;;;;;;1.19;59.16;99657.78;10438280;28;20231;-34
2022/12/07 23:02:11;;;;;;;22.90;14.40;;;;;;;0.83;59.06;99668.56;10438274;28;20234;-34
2022/12/07 23:07:13;;;;;;;18.60;12.73;;;;;;;-0.66;62.22;99673.00;10438655;28;20246;-35
2022/12/07 23:17:36;;;;;;;16.47;11.53;;;;;;;-0.45;63.30;99646.09;10437591;28;20240;-34
2022/12/07 23:22:37;;;;;;;17.57;12.77;;;;;;;-0.10;62.14;99646.03;10439132;28;20259;-34
2022/12/07 23:27:39;;;;;;;16.70;10.90;;;;;;;-1.37;65.59;99630.88;10451972;28;20245;-35
2022/12/07 23:32:41;;;;;;;13.90;8.33;;;;;;;-1.59;66.59;99631.59;10439954;28;20612;-34
2022/12/07 23:37:43;;;;;;;21.77;12.87;;;;;;;-0.98;66.15;99610.53;10445638;28;20238;-35
2022/12/07 23:42:44;;;;;;;12.43;8.03;;;;;;;-1.45;66.86;99619.25;10438222;28;20251;-35
2022/12/07 23:47:46;;;;;;;21.40;14.07;;;;;;;-0.26;65.13;99585.88;10438585;28;20232;-34
2022/12/07 23:52:48;;;;;;;20.20;12.30;;;;;;;-1.09;65.68;99599.16;10449989;28;20742;-34
2022/12/07 23:57:49;;;;;;;18.77;12.77;;;;;;;-0.94;65.30;99592.78;10443115;28;20236;-36
